ADDS METAR Data INFO
IDs: Format: Raw Decoded Include TAF

Data at: 0921 UTC 13 Dec 2017

METAR for:KORL (Orlando/Executive, FL, US)
Text:KORL 130853Z AUTO 32007KT 10SM CLR 10/02 A3003 RMK AO2 SLP174 T01000017 53008
Temperature: 10.0°C ( 50°F)
Dewpoint: 1.7°C ( 35°F) [RH = 56%]
Pressure (altimeter):30.03 inches Hg (1017.0 mb) [Sea level pressure: 1017.4 mb]
Winds:from the NW (320 degrees) at 8 MPH (7 knots; 3.6 m/s)
Visibility:10 or more sm (16+ km)
Ceiling:at least 12,000 feet AGL
Clouds:sky clear below 12,000 feet AGL
QC Flag:automated observation with no human augmentation